Howe Sound: Past 24 Hour Conditions

 

Victoria Int'l Airport

12:00 AM PDT 31 July 2014
This table is a summary of hourly weather conditions for the past 24 hours.
Date / Time
(PDT)
Wind(knots) Conditions Visibility(km) Pressure(kPa) Air tempC) Relative humidity(%) Dew pointC) Humidex
31 July 2014
0:00 NNE 3 Clear 48 101.9 16 75 12 *
30 July 2014
23:00 N 1 Clear 48 101.9 17 71 12 *
22:00 N 1 Mainly Clear 48 101.9 18 68 12 *
21:00 ESE 2 Mainly Clear 48 101.8 19 61 11 *
20:00 E 3 Mainly Sunny 48 101.8 21 56 12 *
19:00 E 5 Mainly Sunny 48 101.9 21 53 12 *
18:00 ESE 6 Mainly Sunny 48 101.9 22 51 11 *
17:00 ESE 10 Mainly Sunny 48 101.9 22 53 12 *
16:00 ESE 9 Mainly Sunny 48 102.0 22 58 14 25
15:00 ESE 6 Mainly Sunny 48 102.0 24 56 15 27
14:00 ESE 6 Mainly Sunny 48 102.1 23 60 15 27
13:00 ESE 7 Mainly Sunny 48 102.1 23 58 15 27
12:00 ESE 6 Mainly Sunny 48 102.1 21 66 14 25
11:00 ENE 6 Sunny 48 102.1 21 64 14 25
10:00 ESE 5 Sunny 48 102.1 19 66 13 *
9:00 E 2 Sunny 48 102.1 18 70 13 *
8:00 N 1 Partly Cloudy 48 102.1 16 76 12 *
7:00 N 1 Mainly Sunny 48 102.1 14 87 12 *
6:00 N 1 Mainly Sunny 48 102.0 13 91 11 *
5:00 SE 3 Mainly Clear 48 102.0 13 89 12 *
4:00 ESE 2 Clear 48 101.9 14 87 12 *
3:00 ENE 2 Clear 48 101.9 14 85 11 *
2:00 NE 4 Clear 48 101.8 14 83 12 *
1:00 ESE 3 Clear 48 101.8 15 81 12 *
0:00 SSE 2 Clear 48 101.8 16 75 12 *
 
Map of Pacific - South Coast marine weather areas Tsawwassen Ferry Terminal South Nomad - 46036 Sentry Shoal - 46131 South Brooks - 46132 Halibut Bank - 46146 South Moresby - 46147 South Hecate Strait - 46185 West Sea Otter - 46204 La Perouse Bank - 46206 East Dellwood - 46207 Discovery Island Esquimalt Harbour Kelp Reefs Malahat Race Rocks Lightstation Saturna Island Sheringham Point University of Victoria Victoria Gonzales Victoria Int'l Airport Ballenas Islands Campbell River Airport Comox Airport Entrance Island Fanny Island Nanaimo Airport Port Hardy Airport Sisters Islets Estevan Point Sartine Island Solander Island Tofino Airport Grief Point Powell River Airport Sechelt Cape St.James Bella Bella Airport Bella Coola Airport Cathedral Point Herbert Island Point Atkinson Sand Heads Lightstation Vancouver Harbour Vancouver Int'l Airport West Vancouver Port Alberni Howe Sound - Pam Rocks Squamish Airport